createdAt,value
2023-04-30T00:00:40.397Z,17.4
2023-04-30T00:01:41.933Z,17.5
2023-04-30T00:02:44.304Z,17.5
2023-04-30T00:03:46.678Z,17.5
2023-04-30T00:04:49.343Z,17.5
2023-04-30T00:05:51.544Z,17.5
2023-04-30T00:06:53.689Z,17.6
2023-04-30T00:07:55.817Z,17.5
2023-04-30T00:08:57.694Z,17.5
2023-04-30T00:09:59.594Z,17.6
2023-04-30T00:11:01.765Z,17.5
2023-04-30T00:12:03.988Z,17.5
2023-04-30T00:13:06.128Z,17.5
2023-04-30T00:14:08.027Z,17.5
2023-04-30T00:15:09.976Z,17.5
2023-04-30T00:16:12.148Z,17.5
2023-04-30T00:17:14.238Z,17.5
2023-04-30T00:18:16.352Z,17.5
2023-04-30T00:19:18.458Z,17.5
2023-04-30T00:20:20.378Z,17.6
2023-04-30T00:21:22.539Z,17.6
2023-04-30T00:22:25.416Z,17.5
2023-04-30T00:23:27.312Z,17.5
2023-04-30T00:24:29.411Z,17.6
2023-04-30T00:25:31.650Z,17.6
2023-04-30T00:26:33.890Z,17.5
2023-04-30T00:27:35.838Z,17.5
2023-04-30T00:28:41.873Z,17.6
2023-04-30T00:29:43.595Z,17.5
2023-04-30T00:30:45.492Z,17.6
2023-04-30T00:31:47.565Z,17.5
2023-04-30T00:32:49.719Z,17.5
2023-04-30T00:33:52.098Z,17.5
2023-04-30T00:34:54.183Z,17.5
2023-04-30T00:35:56.106Z,17.5
2023-04-30T00:36:58.237Z,17.6
2023-04-30T00:37:59.745Z,17.6
2023-04-30T00:39:01.484Z,17.6
2023-04-30T00:40:03.221Z,17.5
2023-04-30T00:41:05.109Z,17.5
2023-04-30T00:42:07.061Z,17.5
2023-04-30T00:43:09.631Z,17.5
2023-04-30T00:44:11.582Z,17.6
2023-04-30T00:45:13.324Z,17.6
2023-04-30T00:46:15.289Z,17.5
2023-04-30T00:47:17.348Z,17.6
2023-04-30T00:48:19.107Z,17.6
2023-04-30T00:49:21.032Z,17.6
2023-04-30T00:50:23.141Z,17.6
2023-04-30T00:51:25.229Z,17.6
2023-04-30T00:52:27.399Z,17.6
2023-04-30T00:53:29.481Z,17.7
2023-04-30T00:54:31.354Z,17.6
2023-04-30T00:55:33.439Z,17.5
2023-04-30T00:56:35.308Z,17.7
2023-04-30T00:57:37.407Z,17.7
2023-04-30T00:58:39.514Z,17.7
2023-04-30T00:59:41.215Z,17.7
2023-04-30T01:00:43.288Z,17.6
2023-04-30T01:01:45.450Z,17.6
2023-04-30T01:02:48.231Z,17.7
2023-04-30T01:03:50.482Z,17.6
2023-04-30T01:04:52.620Z,17.6
2023-04-30T01:05:54.770Z,17.6
2023-04-30T01:06:56.925Z,17.6
2023-04-30T01:07:59.014Z,17.6
2023-04-30T01:09:00.700Z,17.7
2023-04-30T01:10:02.424Z,17.6
2023-04-30T01:11:04.527Z,17.6
2023-04-30T01:12:06.597Z,17.6
2023-04-30T01:13:08.755Z,17.7
2023-04-30T01:14:10.937Z,17.5
2023-04-30T01:15:13.021Z,17.6
2023-04-30T01:16:14.969Z,17.6
2023-04-30T01:17:17.242Z,17.6
2023-04-30T01:18:19.328Z,17.6
2023-04-30T01:19:21.949Z,17.6
2023-04-30T01:20:24.063Z,17.7
2023-04-30T01:21:26.150Z,17.8
2023-04-30T01:22:28.217Z,17.7
2023-04-30T01:23:30.002Z,17.7
2023-04-30T01:24:31.881Z,17.6
2023-04-30T01:25:33.970Z,17.7
2023-04-30T01:26:35.854Z,17.6
2023-04-30T01:27:37.763Z,17.6
2023-04-30T01:28:39.894Z,17.6
2023-04-30T01:29:42.084Z,17.7
2023-04-30T01:30:43.984Z,17.7
2023-04-30T01:31:45.811Z,17.7
2023-04-30T01:32:48.391Z,17.7
2023-04-30T01:33:49.985Z,17.6
2023-04-30T01:34:51.878Z,17.7
2023-04-30T01:35:53.939Z,17.6
2023-04-30T01:36:56.072Z,17.7
2023-04-30T01:37:57.760Z,17.6
2023-04-30T01:38:59.688Z,17.6
2023-04-30T01:40:01.599Z,17.6
2023-04-30T01:41:03.317Z,17.7
2023-04-30T01:42:05.402Z,17.7
2023-04-30T01:43:07.344Z,17.7
2023-04-30T01:44:09.611Z,17.7
2023-04-30T01:45:11.911Z,17.6
2023-04-30T01:46:14.075Z,17.7
2023-04-30T01:47:16.309Z,17.7
2023-04-30T01:48:17.803Z,17.6
2023-04-30T01:49:19.702Z,17.7
2023-04-30T01:50:21.816Z,17.8
2023-04-30T01:51:23.707Z,17.7
2023-04-30T01:52:25.605Z,17.7
2023-04-30T01:53:27.942Z,17.7
2023-04-30T01:54:29.663Z,17.7
2023-04-30T01:55:31.538Z,17.7
2023-04-30T01:56:33.277Z,17.6
2023-04-30T01:57:35.401Z,17.6
2023-04-30T01:58:37.589Z,17.7
2023-04-30T01:59:39.693Z,17.7
2023-04-30T02:00:41.880Z,17.7
2023-04-30T02:01:43.794Z,17.7
2023-04-30T02:02:46.255Z,17.7
2023-04-30T02:03:49.081Z,17.7
2023-04-30T02:04:51.625Z,17.7
2023-04-30T02:05:53.521Z,17.6
2023-04-30T02:06:55.854Z,17.7
2023-04-30T02:07:57.968Z,17.7
2023-04-30T02:08:59.656Z,17.7
2023-04-30T02:10:01.811Z,17.8
2023-04-30T02:11:03.452Z,17.7
2023-04-30T02:12:05.616Z,17.8
2023-04-30T02:13:07.531Z,17.7
2023-04-30T02:14:09.600Z,17.7
2023-04-30T02:15:11.314Z,17.8
2023-04-30T02:16:13.569Z,17.7
2023-04-30T02:17:15.917Z,17.7
2023-04-30T02:18:17.745Z,17.8
2023-04-30T02:19:19.952Z,17.8
2023-04-30T02:20:22.058Z,17.7
2023-04-30T02:21:24.191Z,17.7
2023-04-30T02:22:25.912Z,17.7
2023-04-30T02:23:28.017Z,17.6
2023-04-30T02:24:29.892Z,17.8
2023-04-30T02:25:31.993Z,17.7
2023-04-30T02:26:34.138Z,17.7
2023-04-30T02:27:35.807Z,17.7
2023-04-30T02:28:37.499Z,17.7
2023-04-30T02:29:39.432Z,17.8
2023-04-30T02:30:41.130Z,17.8
2023-04-30T02:31:43.448Z,17.8
2023-04-30T02:32:45.620Z,17.7
2023-04-30T02:33:47.701Z,17.7
2023-04-30T02:34:49.396Z,17.8
2023-04-30T02:35:51.293Z,17.8
2023-04-30T02:36:53.383Z,17.8
2023-04-30T02:37:55.478Z,17.8
2023-04-30T02:38:57.379Z,17.7
2023-04-30T02:39:59.324Z,17.8
2023-04-30T02:41:01.249Z,17.8
2023-04-30T02:42:03.334Z,17.7
2023-04-30T02:43:05.403Z,17.8
2023-04-30T02:44:07.381Z,17.7
2023-04-30T02:45:09.445Z,17.7
2023-04-30T02:46:11.444Z,17.7
2023-04-30T02:47:13.815Z,17.8
2023-04-30T02:48:15.732Z,17.7
2023-04-30T02:49:17.617Z,17.8
2023-04-30T02:50:19.505Z,17.8
2023-04-30T02:51:21.210Z,17.7
2023-04-30T02:52:23.335Z,17.8
2023-04-30T02:53:25.285Z,17.8
2023-04-30T02:54:27.170Z,17.8
2023-04-30T02:55:29.097Z,17.8
2023-04-30T02:56:31.302Z,17.7
2023-04-30T02:57:33.188Z,17.7
2023-04-30T02:58:34.884Z,17.9
2023-04-30T02:59:36.764Z,17.8
2023-04-30T03:00:38.681Z,17.8
2023-04-30T03:01:40.790Z,17.8
2023-04-30T03:02:43.659Z,17.8
2023-04-30T03:03:46.193Z,17.8
2023-04-30T03:04:48.565Z,17.8
2023-04-30T03:05:50.459Z,17.8
2023-04-30T03:06:52.314Z,17.8
2023-04-30T03:07:53.828Z,17.8
2023-04-30T03:08:55.711Z,17.8
2023-04-30T03:09:57.680Z,17.7
2023-04-30T03:10:59.771Z,17.7
2023-04-30T03:12:01.962Z,17.8
2023-04-30T03:13:04.060Z,17.8
2023-04-30T03:14:05.941Z,17.8
2023-04-30T03:15:07.842Z,17.8
2023-04-30T03:16:09.867Z,17.8
2023-04-30T03:17:12.010Z,17.7
2023-04-30T03:18:14.147Z,17.7
2023-04-30T03:19:16.243Z,17.7
2023-04-30T03:20:18.335Z,17.8
2023-04-30T03:21:20.232Z,17.8
2023-04-30T03:22:22.472Z,17.8
2023-04-30T03:23:24.790Z,17.7
2023-04-30T03:24:26.877Z,17.7
2023-04-30T03:25:28.579Z,17.7
2023-04-30T03:26:30.463Z,17.7
2023-04-30T03:27:32.190Z,17.7
2023-04-30T03:28:34.266Z,17.6
2023-04-30T03:29:36.137Z,17.7
2023-04-30T03:30:38.091Z,17.7
2023-04-30T03:31:40.281Z,17.7
2023-04-30T03:32:42.698Z,17.8
2023-04-30T03:33:45.170Z,17.6
2023-04-30T03:34:47.461Z,17.7
2023-04-30T03:35:48.790Z,17.6
2023-04-30T03:36:50.696Z,17.7
2023-04-30T03:37:52.779Z,17.7
2023-04-30T03:38:54.706Z,17.7
2023-04-30T03:39:57.045Z,17.6
2023-04-30T03:40:59.112Z,17.7
2023-04-30T03:42:00.986Z,17.7
2023-04-30T03:43:02.922Z,17.7
2023-04-30T03:44:04.883Z,17.7
2023-04-30T03:45:06.806Z,17.7
2023-04-30T03:46:08.777Z,17.7
2023-04-30T03:47:10.848Z,17.6
2023-04-30T03:48:12.987Z,17.7
2023-04-30T03:49:15.368Z,17.7
2023-04-30T03:50:17.523Z,17.6
2023-04-30T03:51:19.431Z,17.6
2023-04-30T03:52:21.355Z,17.7
2023-04-30T03:53:23.292Z,17.6
2023-04-30T03:54:25.372Z,17.6
2023-04-30T03:55:27.449Z,17.7
2023-04-30T03:56:29.602Z,17.7
2023-04-30T03:57:31.498Z,17.6
2023-04-30T03:58:33.193Z,17.6
2023-04-30T03:59:34.911Z,17.7
2023-04-30T04:00:37.001Z,17.6
2023-04-30T04:01:39.226Z,17.7
2023-04-30T04:02:41.673Z,17.5
2023-04-30T04:03:43.635Z,17.5
2023-04-30T04:04:45.952Z,17.6
2023-04-30T04:05:48.070Z,17.6
2023-04-30T04:06:49.997Z,17.7
2023-04-30T04:07:51.955Z,17.5
2023-04-30T04:08:54.027Z,17.6
2023-04-30T04:09:56.619Z,17.7
2023-04-30T04:10:58.784Z,17.6
2023-04-30T04:12:00.898Z,17.6
2023-04-30T04:13:03.033Z,17.5
2023-04-30T04:14:04.948Z,17.6
2023-04-30T04:15:07.032Z,17.5
2023-04-30T04:16:09.044Z,17.6
2023-04-30T04:17:11.365Z,17.5
2023-04-30T04:18:13.278Z,17.6
2023-04-30T04:19:15.194Z,17.5
2023-04-30T04:20:17.171Z,17.6
2023-04-30T04:21:19.083Z,17.5
2023-04-30T04:22:20.747Z,17.6
2023-04-30T04:23:22.855Z,17.4
2023-04-30T04:24:24.752Z,17.6
2023-04-30T04:25:26.855Z,17.6
2023-04-30T04:26:28.877Z,17.6
2023-04-30T04:27:31.031Z,17.6
2023-04-30T04:28:33.185Z,17.5
2023-04-30T04:29:35.100Z,17.5
2023-04-30T04:30:36.882Z,17.6
2023-04-30T04:31:39.199Z,17.6
2023-04-30T04:32:41.299Z,17.6
2023-04-30T04:33:43.576Z,17.5
2023-04-30T04:34:45.487Z,17.5
2023-04-30T04:35:47.688Z,17.5
2023-04-30T04:36:49.407Z,17.6
2023-04-30T04:37:51.318Z,17.5
2023-04-30T04:38:53.435Z,17.5
2023-04-30T04:39:56.222Z,17.6
2023-04-30T04:40:58.456Z,17.5
2023-04-30T04:42:00.353Z,17.7
2023-04-30T04:43:02.443Z,17.6
2023-04-30T04:44:04.576Z,17.5
2023-04-30T04:45:06.680Z,17.6
2023-04-30T04:46:08.886Z,17.5
2023-04-30T04:47:16.436Z,17.5
2023-04-30T04:48:18.121Z,17.5
2023-04-30T04:49:19.806Z,17.6
2023-04-30T04:50:21.992Z,17.6
2023-04-30T04:51:24.126Z,17.5
2023-04-30T04:52:26.258Z,17.5
2023-04-30T04:53:28.444Z,17.6
2023-04-30T04:54:30.515Z,17.5
2023-04-30T04:55:32.406Z,17.5
2023-04-30T04:56:34.536Z,17.6
2023-04-30T04:57:36.442Z,17.5
2023-04-30T04:58:38.338Z,17.5
2023-04-30T04:59:40.232Z,17.5
2023-04-30T05:00:42.137Z,17.5
2023-04-30T05:01:44.109Z,17.5
2023-04-30T05:02:46.362Z,17.4
2023-04-30T05:03:49.001Z,17.4
2023-04-30T05:04:51.715Z,17.5
2023-04-30T05:05:53.836Z,17.5
2023-04-30T05:06:56.347Z,17.5
2023-04-30T05:07:58.254Z,17.6
2023-04-30T05:09:00.348Z,17.5
2023-04-30T05:10:02.575Z,17.6
2023-04-30T05:11:04.264Z,17.4
2023-04-30T05:12:06.370Z,17.5
2023-04-30T05:13:08.463Z,17.4
2023-04-30T05:14:10.604Z,17.5
2023-04-30T05:15:12.663Z,17.5
2023-04-30T05:16:14.942Z,17.5
2023-04-30T05:17:17.189Z,17.5
2023-04-30T05:18:19.278Z,17.5
2023-04-30T05:19:21.162Z,17.5
2023-04-30T05:20:23.276Z,17.5
2023-04-30T05:21:25.069Z,17.5
2023-04-30T05:22:27.436Z,17.4
2023-04-30T05:23:29.505Z,17.5
2023-04-30T05:24:31.635Z,17.6
2023-04-30T05:25:33.732Z,17.4
2023-04-30T05:26:35.647Z,17.4
2023-04-30T05:27:37.345Z,17.5
2023-04-30T05:28:39.238Z,17.4
2023-04-30T05:29:41.361Z,17.5
2023-04-30T05:30:43.263Z,17.5
2023-04-30T05:31:45.258Z,17.5
2023-04-30T05:32:47.677Z,17.5
2023-04-30T05:33:49.775Z,17.5
2023-04-30T05:34:51.696Z,17.4
2023-04-30T05:35:53.810Z,17.5
2023-04-30T05:36:55.777Z,17.5
2023-04-30T05:37:57.951Z,17.5
2023-04-30T05:38:59.888Z,17.5
2023-04-30T05:40:01.670Z,17.5
2023-04-30T05:41:03.349Z,17.6
2023-04-30T05:42:05.287Z,17.5
2023-04-30T05:43:07.182Z,17.5
2023-04-30T05:44:09.129Z,17.5
2023-04-30T05:45:11.037Z,17.5
2023-04-30T05:46:13.085Z,17.5
2023-04-30T05:47:15.178Z,17.4
2023-04-30T05:48:17.252Z,17.4
2023-04-30T05:49:19.410Z,17.5
2023-04-30T05:50:21.511Z,17.5
2023-04-30T05:51:23.427Z,17.4
2023-04-30T05:52:25.564Z,17.4
2023-04-30T05:53:27.576Z,17.5
2023-04-30T05:54:29.812Z,17.5
2023-04-30T05:55:32.004Z,17.5
2023-04-30T05:56:34.127Z,17.4
2023-04-30T05:57:36.232Z,17.4
2023-04-30T05:58:38.135Z,17.5
2023-04-30T05:59:40.104Z,17.4
2023-04-30T06:00:42.196Z,17.4
2023-04-30T06:01:44.346Z,17.5
2023-04-30T06:02:46.700Z,17.4
2023-04-30T06:03:48.877Z,17.5
2023-04-30T06:04:51.026Z,17.5
2023-04-30T06:05:53.340Z,17.4
2023-04-30T06:06:55.645Z,17.4
2023-04-30T06:07:57.752Z,17.5
2023-04-30T06:09:00.158Z,17.4
2023-04-30T06:10:01.880Z,17.5
2023-04-30T06:11:04.022Z,17.4
2023-04-30T06:12:05.930Z,17.4
2023-04-30T06:13:08.065Z,17.3
2023-04-30T06:14:10.191Z,17.5
2023-04-30T06:15:12.121Z,17.4
2023-04-30T06:16:14.072Z,17.5
2023-04-30T06:17:16.347Z,17.4
2023-04-30T06:18:18.062Z,17.6
2023-04-30T06:19:19.805Z,17.5
2023-04-30T06:20:21.902Z,17.4
2023-04-30T06:21:23.776Z,17.5
2023-04-30T06:22:25.833Z,17.5
2023-04-30T06:23:27.744Z,17.5
2023-04-30T06:24:29.910Z,17.3
2023-04-30T06:25:32.002Z,17.5
2023-04-30T06:26:33.708Z,17.4
2023-04-30T06:27:36.585Z,17.4
2023-04-30T06:28:38.665Z,17.4
2023-04-30T06:29:40.586Z,17.4
2023-04-30T06:30:42.570Z,17.5
2023-04-30T06:31:44.767Z,17.5
2023-04-30T06:32:47.202Z,17.4
2023-04-30T06:33:49.463Z,17.4
2023-04-30T06:34:51.377Z,17.4
2023-04-30T06:35:53.270Z,17.4
2023-04-30T06:36:55.161Z,17.5
2023-04-30T06:37:57.248Z,17.4
2023-04-30T06:38:58.979Z,17.4
2023-04-30T06:40:01.357Z,17.5
2023-04-30T06:41:03.138Z,17.5
2023-04-30T06:42:05.207Z,17.5
2023-04-30T06:43:07.291Z,17.5
2023-04-30T06:44:09.413Z,17.4
2023-04-30T06:45:11.510Z,17.4
2023-04-30T06:46:13.679Z,17.5
2023-04-30T06:47:16.040Z,17.5
2023-04-30T06:48:18.126Z,17.5
2023-04-30T06:49:19.842Z,17.4
2023-04-30T06:50:21.980Z,17.5
2023-04-30T06:51:24.096Z,17.4
2023-04-30T06:52:26.178Z,17.4
2023-04-30T06:53:28.286Z,17.5
2023-04-30T06:54:30.421Z,17.5
2023-04-30T06:55:32.438Z,17.4
2023-04-30T06:56:34.314Z,17.4
2023-04-30T06:57:36.413Z,17.4
2023-04-30T06:58:38.646Z,17.4
2023-04-30T06:59:40.799Z,17.5
2023-04-30T07:00:42.888Z,17.4
2023-04-30T07:01:44.812Z,17.5
2023-04-30T07:02:47.001Z,17.4
2023-04-30T07:03:49.698Z,17.4
2023-04-30T07:04:52.344Z,17.4
2023-04-30T07:05:54.518Z,17.4
2023-04-30T07:06:56.753Z,17.4
2023-04-30T07:07:58.846Z,17.5
2023-04-30T07:09:00.935Z,17.4
2023-04-30T07:10:02.919Z,17.4
2023-04-30T07:11:05.080Z,17.5
2023-04-30T07:12:06.777Z,17.4
2023-04-30T07:13:08.723Z,17.4
2023-04-30T07:14:10.838Z,17.4
2023-04-30T07:15:12.552Z,17.4
2023-04-30T07:16:14.757Z,17.4
2023-04-30T07:17:16.822Z,17.4
2023-04-30T07:18:19.132Z,17.5
2023-04-30T07:19:21.049Z,17.4
2023-04-30T07:20:22.955Z,17.5
2023-04-30T07:21:25.043Z,17.5
2023-04-30T07:22:27.160Z,17.4
2023-04-30T07:23:31.014Z,17.5
2023-04-30T07:24:33.149Z,17.5
2023-04-30T07:25:35.089Z,17.4
2023-04-30T07:26:37.343Z,17.5
2023-04-30T07:27:39.477Z,17.4
2023-04-30T07:28:41.563Z,17.4
2023-04-30T07:29:43.263Z,17.5
2023-04-30T07:30:44.987Z,17.5
2023-04-30T07:31:46.819Z,17.4
2023-04-30T07:32:48.817Z,17.5
2023-04-30T07:33:51.169Z,17.4
2023-04-30T07:34:53.249Z,17.5
2023-04-30T07:35:55.008Z,17.4
2023-04-30T07:36:57.109Z,17.5
2023-04-30T07:37:59.226Z,17.5
2023-04-30T07:39:01.385Z,17.4
2023-04-30T07:40:03.532Z,17.4
2023-04-30T07:41:05.504Z,17.4
2023-04-30T07:42:07.727Z,17.4
2023-04-30T07:43:09.817Z,17.4
2023-04-30T07:44:11.940Z,17.4
2023-04-30T07:45:13.844Z,17.5
2023-04-30T07:46:15.834Z,17.4
2023-04-30T07:47:17.974Z,17.5
2023-04-30T07:48:20.089Z,17.4
2023-04-30T07:49:22.181Z,17.5
2023-04-30T07:50:24.105Z,17.4
2023-04-30T07:51:26.067Z,17.4
2023-04-30T07:52:27.764Z,17.3
2023-04-30T07:53:29.664Z,17.5
2023-04-30T07:54:31.745Z,17.4
2023-04-30T07:55:33.413Z,17.4
2023-04-30T07:56:35.340Z,17.5
2023-04-30T07:57:37.523Z,17.3
2023-04-30T07:58:39.596Z,17.4
2023-04-30T07:59:41.775Z,17.5
2023-04-30T08:00:43.856Z,17.4
2023-04-30T08:01:46.081Z,17.4
2023-04-30T08:02:49.233Z,17.3
2023-04-30T08:03:52.694Z,17.4
2023-04-30T08:04:55.104Z,17.4
2023-04-30T08:05:57.252Z,17.4
2023-04-30T08:06:59.333Z,17.4
2023-04-30T08:08:01.219Z,17.3
2023-04-30T08:09:03.125Z,17.4
2023-04-30T08:10:05.174Z,17.4
2023-04-30T08:11:06.950Z,17.4
2023-04-30T08:12:08.842Z,17.4
2023-04-30T08:13:11.018Z,17.4
2023-04-30T08:14:12.733Z,17.4
2023-04-30T08:15:14.838Z,17.5
2023-04-30T08:16:16.907Z,17.4
2023-04-30T08:17:19.188Z,17.4
2023-04-30T08:18:21.310Z,17.4
2023-04-30T08:19:22.857Z,17.3
2023-04-30T08:20:25.025Z,17.4
2023-04-30T08:21:27.117Z,17.4
2023-04-30T08:22:28.833Z,17.4
2023-04-30T08:23:30.717Z,17.4
2023-04-30T08:24:32.807Z,17.4
2023-04-30T08:25:34.932Z,17.5
2023-04-30T08:26:37.023Z,17.4
2023-04-30T08:27:39.079Z,17.4
2023-04-30T08:28:41.278Z,17.3
2023-04-30T08:29:43.163Z,17.5
2023-04-30T08:30:45.060Z,17.4
2023-04-30T08:31:47.267Z,17.4
2023-04-30T08:32:49.718Z,17.4
2023-04-30T08:33:52.080Z,17.4
2023-04-30T08:34:54.956Z,17.4
2023-04-30T08:35:58.049Z,17.5
2023-04-30T08:36:59.918Z,17.4
2023-04-30T08:38:02.062Z,17.5
2023-04-30T08:39:03.992Z,17.3
2023-04-30T08:40:05.891Z,17.4
2023-04-30T08:41:07.780Z,17.4
2023-04-30T08:42:09.677Z,17.4
2023-04-30T08:43:11.809Z,17.3
2023-04-30T08:44:14.314Z,17.4
2023-04-30T08:45:16.400Z,17.4
2023-04-30T08:46:18.494Z,17.4
2023-04-30T08:47:20.896Z,17.4
2023-04-30T08:48:22.930Z,17.4
2023-04-30T08:49:25.408Z,17.5
2023-04-30T08:50:27.514Z,17.5
2023-04-30T08:51:29.500Z,17.4
2023-04-30T08:52:31.580Z,17.4
2023-04-30T08:53:33.709Z,17.4
2023-04-30T08:54:35.815Z,17.5
2023-04-30T08:55:37.500Z,17.4
2023-04-30T08:56:39.602Z,17.4
2023-04-30T08:57:41.783Z,17.4
2023-04-30T08:58:43.955Z,17.4
2023-04-30T08:59:46.144Z,17.3
2023-04-30T09:00:47.858Z,17.4
2023-04-30T09:02:55.038Z,17.5
2023-04-30T09:03:57.930Z,17.4
2023-04-30T09:05:00.640Z,17.4
2023-04-30T09:06:02.832Z,17.4
2023-04-30T09:07:06.858Z,17.4
2023-04-30T09:08:11.144Z,17.4
2023-04-30T09:09:13.241Z,17.4
2023-04-30T09:10:15.150Z,17.4
2023-04-30T09:11:17.112Z,17.3
2023-04-30T09:12:20.194Z,17.6
2023-04-30T09:13:22.050Z,17.4
2023-04-30T09:14:24.092Z,17.5
2023-04-30T09:15:26.303Z,17.4
2023-04-30T09:16:28.471Z,17.4
2023-04-30T09:17:30.896Z,17.4
2023-04-30T09:18:32.852Z,17.4
2023-04-30T09:19:34.740Z,17.3
2023-04-30T09:20:36.857Z,17.3
2023-04-30T09:21:38.747Z,17.4
2023-04-30T09:22:40.854Z,17.4
2023-04-30T09:23:42.795Z,17.4
2023-04-30T09:24:44.705Z,17.4
2023-04-30T09:25:46.582Z,17.4
2023-04-30T09:26:48.718Z,17.3
2023-04-30T09:27:50.806Z,17.4
2023-04-30T09:28:52.686Z,17.4
2023-04-30T09:29:55.594Z,17.4
2023-04-30T09:30:58.748Z,17.4
2023-04-30T09:32:00.907Z,17.4
2023-04-30T09:33:03.526Z,17.4
2023-04-30T09:34:05.603Z,17.4
2023-04-30T09:35:07.565Z,17.4
2023-04-30T09:36:09.441Z,17.4
2023-04-30T09:37:11.347Z,17.4
2023-04-30T09:38:13.203Z,17.4
2023-04-30T09:39:16.696Z,17.4
2023-04-30T09:40:18.870Z,17.3
2023-04-30T09:41:20.623Z,17.4
2023-04-30T09:42:22.731Z,17.4
2023-04-30T09:43:24.835Z,17.5
2023-04-30T09:44:26.577Z,17.4
2023-04-30T09:45:28.665Z,17.4
2023-04-30T09:46:34.191Z,17.4
2023-04-30T09:47:36.621Z,17.4
2023-04-30T09:48:38.942Z,17.4
2023-04-30T09:49:41.412Z,17.4
2023-04-30T09:50:44.033Z,17.4
2023-04-30T09:51:45.958Z,17.4
2023-04-30T09:52:47.825Z,17.4
2023-04-30T09:53:49.751Z,17.4
2023-04-30T09:54:51.954Z,17.4
2023-04-30T09:55:54.575Z,17.4
2023-04-30T09:57:01.464Z,17.3
2023-04-30T09:58:03.681Z,17.4
2023-04-30T09:59:05.785Z,17.4
2023-04-30T10:00:07.698Z,17.4
2023-04-30T10:01:09.919Z,17.3
2023-04-30T10:02:12.276Z,17.4
2023-04-30T10:03:14.522Z,17.3
2023-04-30T10:04:16.813Z,17.4
2023-04-30T10:05:18.904Z,17.3
2023-04-30T10:06:21.225Z,17.5
2023-04-30T10:07:23.670Z,17.4
2023-04-30T10:08:25.571Z,17.4
2023-04-30T10:09:27.498Z,17.3
2023-04-30T10:10:29.609Z,17.3
2023-04-30T10:11:31.756Z,17.4
2023-04-30T10:12:33.866Z,17.4
2023-04-30T10:13:35.987Z,17.3
2023-04-30T10:14:38.108Z,17.4
2023-04-30T10:15:40.227Z,17.4
2023-04-30T10:16:42.469Z,17.4
2023-04-30T10:17:45.018Z,17.5
2023-04-30T10:18:47.296Z,17.4
2023-04-30T10:19:49.404Z,17.4
2023-04-30T10:20:51.512Z,17.4
2023-04-30T10:21:53.448Z,17.4
2023-04-30T10:22:55.541Z,17.4
2023-04-30T10:23:57.635Z,17.3
2023-04-30T10:24:59.523Z,17.4
2023-04-30T10:26:01.623Z,17.5
2023-04-30T10:27:03.702Z,17.5
2023-04-30T10:28:05.631Z,17.5
2023-04-30T10:29:07.547Z,17.3
2023-04-30T10:30:09.242Z,17.4
2023-04-30T10:31:11.351Z,17.4
2023-04-30T10:32:13.999Z,17.4
2023-04-30T10:33:17.450Z,17.4
2023-04-30T10:34:19.565Z,17.5
2023-04-30T10:35:21.268Z,17.3
2023-04-30T10:36:23.459Z,17.3
2023-04-30T10:37:25.163Z,17.4
2023-04-30T10:38:27.060Z,17.3
2023-04-30T10:39:29.149Z,17.4
2023-04-30T10:40:31.303Z,17.3
2023-04-30T10:41:33.202Z,17.4
2023-04-30T10:42:35.321Z,17.3
2023-04-30T10:43:37.272Z,17.5
2023-04-30T10:44:39.399Z,17.4
2023-04-30T10:45:41.582Z,17.4
2023-04-30T10:46:43.909Z,17.3
2023-04-30T10:47:45.927Z,17.4
2023-04-30T10:48:48.478Z,17.4
2023-04-30T10:49:50.610Z,17.4
2023-04-30T10:50:52.570Z,17.3
2023-04-30T10:51:54.458Z,17.4
2023-04-30T10:52:56.545Z,17.4
2023-04-30T10:53:58.616Z,17.4
2023-04-30T10:55:00.497Z,17.4
2023-04-30T10:56:02.183Z,17.4
2023-04-30T10:57:04.298Z,17.4
2023-04-30T10:58:06.456Z,17.4
2023-04-30T10:59:08.564Z,17.4
2023-04-30T11:00:10.716Z,17.4
2023-04-30T11:01:12.866Z,17.4
2023-04-30T11:02:15.359Z,17.4
2023-04-30T11:03:17.720Z,17.3
2023-04-30T11:04:20.060Z,17.3
2023-04-30T11:05:22.272Z,17.3
2023-04-30T11:06:24.313Z,17.3
2023-04-30T11:07:26.529Z,17.4
2023-04-30T11:08:28.607Z,17.3
2023-04-30T11:09:30.671Z,17.4
2023-04-30T11:10:32.784Z,17.3
2023-04-30T11:11:34.867Z,17.4
2023-04-30T11:12:36.967Z,17.4
2023-04-30T11:13:39.070Z,17.4
2023-04-30T11:14:41.173Z,17.4
2023-04-30T11:15:43.186Z,17.3
2023-04-30T11:16:45.468Z,17.4
2023-04-30T11:17:47.248Z,17.4
2023-04-30T11:18:49.635Z,17.3
2023-04-30T11:19:51.977Z,17.3
2023-04-30T11:20:55.221Z,17.3
2023-04-30T11:21:56.958Z,17.4
2023-04-30T11:22:58.838Z,17.4
2023-04-30T11:24:00.746Z,17.3
2023-04-30T11:25:02.855Z,17.4
2023-04-30T11:26:05.005Z,17.3
2023-04-30T11:27:07.181Z,17.4
2023-04-30T11:28:09.137Z,17.4
2023-04-30T11:29:11.166Z,17.4
2023-04-30T11:30:13.320Z,17.4
2023-04-30T11:31:16.016Z,17.4
2023-04-30T11:32:18.509Z,17.4
2023-04-30T11:33:20.977Z,17.3
2023-04-30T11:34:23.106Z,17.5
2023-04-30T11:35:25.280Z,17.4
2023-04-30T11:36:27.366Z,17.4
2023-04-30T11:37:29.637Z,17.4
2023-04-30T11:38:31.531Z,17.4
2023-04-30T11:39:33.655Z,17.4
2023-04-30T11:40:35.748Z,17.4
2023-04-30T11:41:37.841Z,17.5
2023-04-30T11:42:39.773Z,17.4
2023-04-30T11:43:46.773Z,17.4
2023-04-30T11:44:48.989Z,17.4
2023-04-30T11:45:50.879Z,17.3
2023-04-30T11:46:53.072Z,17.3
2023-04-30T11:47:55.400Z,17.4
2023-04-30T11:48:57.520Z,17.3
2023-04-30T11:49:59.239Z,17.3
2023-04-30T11:51:01.420Z,17.4
2023-04-30T11:52:03.340Z,17.4
2023-04-30T11:53:05.373Z,17.3
2023-04-30T11:54:07.428Z,17.2
2023-04-30T11:55:09.320Z,17.4
2023-04-30T11:56:11.422Z,17.4
2023-04-30T11:57:13.713Z,17.5
2023-04-30T11:58:15.668Z,17.3
2023-04-30T11:59:17.798Z,17.2
2023-04-30T12:00:19.978Z,17.4
2023-04-30T12:01:22.132Z,17.4
2023-04-30T12:02:24.489Z,17.4
2023-04-30T12:03:27.279Z,17.3
2023-04-30T12:04:29.682Z,17.4
2023-04-30T12:05:32.521Z,17.4
2023-04-30T12:06:34.772Z,17.3
2023-04-30T12:07:36.909Z,17.3
2023-04-30T12:08:39.010Z,17.4
2023-04-30T12:09:40.902Z,17.4
2023-04-30T12:10:43.000Z,17.4
2023-04-30T12:11:45.120Z,17.4
2023-04-30T12:12:47.232Z,17.4
2023-04-30T12:13:52.146Z,17.5
2023-04-30T12:14:54.050Z,17.4
2023-04-30T12:15:56.163Z,17.4
2023-04-30T12:16:58.226Z,17.4
2023-04-30T12:18:00.855Z,17.4
2023-04-30T12:19:03.236Z,17.4
2023-04-30T12:20:05.266Z,17.3
2023-04-30T12:21:07.195Z,17.4
2023-04-30T12:22:09.382Z,17.4
2023-04-30T12:23:11.486Z,17.4
2023-04-30T12:24:13.276Z,17.4
2023-04-30T12:25:15.381Z,17.4
2023-04-30T12:26:17.264Z,17.4
2023-04-30T12:27:19.241Z,17.4
2023-04-30T12:28:21.343Z,17.3
2023-04-30T12:29:23.459Z,17.4
2023-04-30T12:30:25.571Z,17.3
2023-04-30T12:31:28.019Z,17.3
2023-04-30T12:32:30.855Z,17.3
2023-04-30T12:33:33.321Z,17.3
2023-04-30T12:34:35.027Z,17.4
2023-04-30T12:35:37.185Z,17.5
2023-04-30T12:36:39.230Z,17.4
2023-04-30T12:37:41.405Z,17.4
2023-04-30T12:38:43.649Z,17.4
2023-04-30T12:39:45.572Z,17.3
2023-04-30T12:40:47.470Z,17.4
2023-04-30T12:41:49.398Z,17.3
2023-04-30T12:42:51.610Z,17.4
2023-04-30T12:43:53.720Z,17.4
2023-04-30T12:44:55.787Z,17.4
2023-04-30T12:45:58.015Z,17.4
2023-04-30T12:47:00.325Z,17.4
2023-04-30T12:48:02.673Z,17.4
2023-04-30T12:49:04.799Z,17.4
2023-04-30T12:50:06.740Z,17.5
2023-04-30T12:51:08.719Z,17.3
2023-04-30T12:52:10.637Z,17.4
2023-04-30T12:53:12.960Z,17.3
2023-04-30T12:54:14.848Z,17.4
2023-04-30T12:55:16.928Z,17.4
2023-04-30T12:56:19.054Z,17.4
2023-04-30T12:57:21.133Z,17.4
2023-04-30T12:58:23.250Z,17.3
2023-04-30T12:59:25.320Z,17.5
2023-04-30T13:00:27.413Z,17.4
2023-04-30T13:01:29.575Z,17.4
2023-04-30T13:02:32.333Z,17.5
2023-04-30T13:03:35.082Z,17.4
2023-04-30T13:04:37.477Z,17.4
2023-04-30T13:05:39.602Z,17.4
2023-04-30T13:06:42.005Z,17.4
2023-04-30T13:07:44.614Z,17.4
2023-04-30T13:09:51.848Z,17.4
2023-04-30T13:10:54.846Z,17.4
2023-04-30T13:11:56.726Z,17.5
2023-04-30T13:12:58.808Z,17.4
2023-04-30T13:14:00.765Z,17.4
2023-04-30T13:15:02.858Z,17.5
2023-04-30T13:16:05.080Z,17.4
2023-04-30T13:17:07.544Z,17.4
2023-04-30T13:18:09.834Z,17.4
2023-04-30T13:19:12.041Z,17.4
2023-04-30T13:20:14.142Z,17.4
2023-04-30T13:21:16.227Z,17.5
2023-04-30T13:22:18.319Z,17.5
2023-04-30T13:23:20.216Z,17.5
2023-04-30T13:24:22.618Z,17.4
2023-04-30T13:25:24.588Z,17.4
2023-04-30T13:26:26.772Z,17.4
2023-04-30T13:27:28.857Z,17.4
2023-04-30T13:28:30.557Z,17.4
2023-04-30T13:29:32.671Z,17.4
2023-04-30T13:30:34.587Z,17.4
2023-04-30T13:31:36.868Z,17.4
2023-04-30T13:32:39.401Z,17.4
2023-04-30T13:33:41.828Z,17.4
2023-04-30T13:34:43.786Z,17.4
2023-04-30T13:35:45.668Z,17.5
2023-04-30T13:36:47.563Z,17.4
2023-04-30T13:37:49.630Z,17.4
2023-04-30T13:38:51.173Z,17.4
2023-04-30T13:39:54.035Z,17.4
2023-04-30T13:40:57.023Z,17.4
2023-04-30T13:41:58.983Z,17.5
2023-04-30T13:43:00.908Z,17.4
2023-04-30T13:44:02.993Z,17.4
2023-04-30T13:45:04.936Z,17.4
2023-04-30T13:46:07.187Z,17.4
2023-04-30T13:47:09.397Z,17.4
2023-04-30T13:48:11.892Z,17.4
2023-04-30T13:49:14.011Z,17.4